KMBL/MBL METAR and TAF weather

Enter ICAO airport designator
Station Type Date Time Source
KMBL METAR 2020/06/05 23:56 UTC NOAA

KMBL 052356Z AUTO 25003KT 10SM CLR 19/14 A2987 RMK AO2 SLP114 T01940139 10256 20178 51005


Station Type Date Time Source
KMBL Decoded METAR 2020/06/05 23:56 UTC NOAA

Manistee, Manistee County-Blacker Airport, MI, United States (KMBL) 44-16N 086-15W
Jun 05, 2020 - 07:56 PM EDT / 2020.06.05 2356 UTC
Wind: from the WSW (250 degrees) at 3 MPH (3 KT):0
Visibility: 10 mile(s):0
Sky conditions: clear
Temperature: 66.9 F (19.4 C)
Dew Point: 57.0 F (13.9 C)
Relative Humidity: 70%
Pressure (altimeter): 29.87 in. Hg (1011 hPa)
Pressure tendency: 0.01 inches (0.5 hPa) higher than three hours ago
ob: KMBL 052356Z AUTO 25003KT 10SM CLR 19/14 A2987 RMK AO2 SLP114 T01940139 10256 20178 51005
cycle: 0

Station Type Date Time Source
KMBL TAF 2020/06/05 18:54 UTC NOAA

TAF KMBL 051751Z 0518/0618 34007KT P6SM VCSH BKN080
FM052100 32006KT P6SM SCT080 BKN250
FM060100 VRB03KT P6SM FEW070
FM060700 VRB03KT P6SM FEW250
FM061500 35010KT P6SM SCT250

Example: see airport list